Pagrindinis puslapis
METAR-TAF:

METAR-TAF

Oro uostai :

San Žozė dos Kamposas, San Paulas, Brazilija

platuma: 23-14S, ilguma: 045-52W, Aukštis: 646 m

Dabartinis oras

Ataskaita buvo paskelbta 42 minutes, ne 23:00 UTC
Vėjas 5 kt iš Šiaurės Rytų
Temperatūra 20°C
Drėgmė 78%
Slėgis 1022 hPa
Matomumas 10 km arba daugiau
nėra debesų žemiau 1500 m ir nėra kamuolinių lietaus debesų

METAR: SBSJ 052300Z 05005KT CAVOK 20/16 Q1022

Laikas: 20:42 (23:42 UTC)

Prognozė

Ataskaita buvo paskelbta 2 valandos ir 42 minutes, ne 21:00 UTC
Prognozė galioja nuo 06 metu 00 UTC su 06 metu 12 UTC
Vėjas 2 kt iš Pietų/Pietvakarių
Matomumas 10 km arba daugiau
Mažai debesys ne aukštis 3700 ft
Tikimybė 30%
nuo 06 metu 09 UTC su 06 metu 12 UTC
Vėjas 2 kt iš Rytų/Šiaurės Rytų
Matomumas: 4500 m
Su prošvaistėmis ne aukštis 1000 ft
rūkana

TAF: SBSJ 052100Z 0600/0612 20002KT 9999 FEW037 TN17/0609Z TX19/0612Z PROB30 0609/0612 06002KT 4500 BR BKN010 RMK PFM

Orai ataskaitas ir orų prognozės (METAR, TAF).

turimą stotys yra geltonos ir raudonos taškus žemėlapyje.

Perkelti pele per norėdami pamatyti stoties vardą.

Tada spustelėkite, norėdami matyti oro stebėjimo ir prognozės.

Norėdami pakeisti žemėlapį: spustelėkite ant žalios mygtukų su juodo kryžiaus žemyn,; žalią mygtuką su brūkšneliu, jei norite nutolinti; arba žalių rodyklių gretimoms žemėlapius.


METAR-TAF: